Time;durP1;ratioP1;P1;durP2;ratioP2;P2;SDS_P1;SDS_P2;PMS_P1;PMS_P2;Temp;Humidity;BMP_temperature;BMP_pressure;BME280_temperature;BME280_humidity;BME280_pressure;Samples;Min_cycle;Max_cycle;Signal;HPM_P1;HPM_P2
2022/09/01 00:02:07;;;;;;;2.50;2.07;;;11.90;80.70;;;;;;5053758;28;20654;-90
2022/09/01 00:04:37;;;;;;;2.33;2.13;;;11.90;81.30;;;;;;5053492;28;20182;-90
2022/09/01 00:07:04;;;;;;;5.13;2.10;;;11.80;81.90;;;;;;5054440;28;20216;-90
2022/09/01 00:09:30;;;;;;;3.13;1.73;;;11.80;82.40;;;;;;5053627;28;20168;-90
2022/09/01 00:11:56;;;;;;;1.97;1.77;;;11.90;82.70;;;;;;5053460;28;20181;-90
2022/09/01 00:14:25;;;;;;;3.10;1.70;;;11.90;82.80;;;;;;5053325;28;20176;-90
2022/09/01 00:16:52;;;;;;;1.60;1.47;;;11.80;83.20;;;;;;5053693;28;20200;-90
2022/09/01 00:19:19;;;;;;;1.70;1.60;;;11.90;83.30;;;;;;5053549;28;20180;-90
2022/09/01 00:21:45;;;;;;;4.63;1.90;;;12.00;83.40;;;;;;5053660;28;20223;-90
2022/09/01 00:24:13;;;;;;;1.97;1.87;;;12.00;83.30;;;;;;5053136;28;20182;-90
2022/09/01 00:26:38;;;;;;;5.53;1.97;;;12.00;83.40;;;;;;5053213;28;20196;-90
2022/09/01 00:29:04;;;;;;;2.30;2.10;;;11.90;83.30;;;;;;5053242;28;20225;-90
2022/09/01 00:31:30;;;;;;;2.53;1.67;;;11.90;83.50;;;;;;5053080;28;20172;-90
2022/09/01 00:33:56;;;;;;;5.90;1.90;;;11.90;83.60;;;;;;5052965;28;20175;-90
2022/09/01 00:36:22;;;;;;;5.37;1.83;;;11.80;83.60;;;;;;5053018;28;20196;-90
2022/09/01 00:38:49;;;;;;;3.20;2.30;;;11.80;83.60;;;;;;5052880;28;20183;-90
2022/09/01 00:41:18;;;;;;;2.20;2.00;;;11.80;83.50;;;;;;5052823;28;20647;-90
2022/09/01 00:43:43;;;;;;;2.40;2.20;;;11.80;83.60;;;;;;5052790;28;20180;-90
2022/09/01 00:46:21;;;;;;;2.33;2.20;;;11.90;83.80;;;;;;5052755;28;20191;-90
2022/09/01 00:48:52;;;;;;;2.70;2.10;;;11.90;83.80;;;;;;5052858;28;20241;-90
2022/09/01 00:51:18;;;;;;;2.67;2.23;;;12.00;83.80;;;;;;5052759;28;20196;-90
2022/09/01 00:53:44;;;;;;;2.23;2.03;;;12.00;83.80;;;;;;5052912;28;20168;-90
2022/09/01 00:56:12;;;;;;;2.17;1.97;;;12.00;83.90;;;;;;5053850;28;20190;-90
2022/09/01 00:58:38;;;;;;;4.50;1.83;;;12.00;83.90;;;;;;5053774;28;20222;-90
2022/09/01 01:01:06;;;;;;;2.10;1.97;;;12.10;83.90;;;;;;5052742;28;20281;-90
2022/09/01 01:03:32;;;;;;;2.63;2.13;;;12.10;83.90;;;;;;5052324;28;20176;-90
2022/09/01 01:06:03;;;;;;;2.13;1.93;;;12.10;84.00;;;;;;5052158;28;20183;-90
2022/09/01 01:08:34;;;;;;;2.77;2.10;;;12.20;84.00;;;;;;5052310;28;20210;-90
2022/09/01 01:11:02;;;;;;;2.20;2.00;;;12.10;84.00;;;;;;5052165;28;20172;-90
2022/09/01 01:13:30;;;;;;;2.30;2.10;;;12.10;84.10;;;;;;5052268;28;20212;-90
2022/09/01 01:15:57;;;;;;;2.13;1.87;;;12.20;84.20;;;;;;5052361;28;20721;-90
2022/09/01 01:18:23;;;;;;;2.93;2.40;;;12.20;84.30;;;;;;5052212;28;20182;-90
2022/09/01 01:24:00;;;;;;;2.43;2.03;;;12.10;84.60;;;;;;5053785;28;20648;-89
2022/09/01 01:26:27;;;;;;;4.17;2.30;;;12.20;84.60;;;;;;5053252;28;20205;-90
2022/09/01 01:28:54;;;;;;;4.87;2.27;;;12.20;84.50;;;;;;5051971;28;20195;-90
2022/09/01 01:31:21;;;;;;;2.73;2.10;;;12.10;84.50;;;;;;5051482;28;20282;-90
2022/09/01 01:33:53;;;;;;;1.93;1.80;;;12.10;84.50;;;;;;5051929;28;20172;-90
2022/09/01 01:36:31;;;;;;;2.40;1.70;;;12.10;84.60;;;;;;5052050;28;20200;-90
2022/09/01 01:39:00;;;;;;;2.67;2.30;;;12.10;84.70;;;;;;5051957;28;20641;-90
2022/09/01 01:41:26;;;;;;;1.90;1.67;;;12.00;84.70;;;;;;5056378;28;20693;-90
2022/09/01 01:43:52;;;;;;;3.70;1.90;;;11.90;84.90;;;;;;5055916;28;20180;-91
2022/09/01 01:46:18;;;;;;;2.03;1.90;;;11.90;85.10;;;;;;5056150;28;20571;-90
2022/09/01 01:48:45;;;;;;;2.50;2.30;;;11.90;85.20;;;;;;5057162;28;20183;-90
2022/09/01 01:51:12;;;;;;;2.50;2.30;;;12.00;85.40;;;;;;5056136;28;20172;-90
2022/09/01 01:53:38;;;;;;;3.90;2.27;;;12.00;85.30;;;;;;5055795;28;20168;-90
2022/09/01 01:56:05;;;;;;;9.57;2.00;;;12.00;85.50;;;;;;5056086;28;20708;-90
2022/09/01 01:58:32;;;;;;;3.47;2.07;;;11.90;85.60;;;;;;5055751;28;20199;-90
2022/09/01 02:00:58;;;;;;;3.60;2.20;;;11.90;85.80;;;;;;5055858;28;20172;-90
2022/09/01 02:03:27;;;;;;;3.03;2.23;;;11.80;85.70;;;;;;5055755;28;20178;-90
2022/09/01 02:05:54;;;;;;;2.50;2.30;;;11.70;85.90;;;;;;5055637;28;20180;-90
2022/09/01 02:08:21;;;;;;;2.47;1.97;;;11.80;86.10;;;;;;5055468;28;20208;-90
2022/09/01 02:10:50;;;;;;;3.00;2.30;;;11.80;85.90;;;;;;5055781;28;20178;-90
2022/09/01 02:13:19;;;;;;;3.07;2.40;;;11.70;85.90;;;;;;5056426;28;20622;-90
2022/09/01 02:15:52;;;;;;;2.97;2.40;;;11.70;85.80;;;;;;5055736;28;20712;-90
2022/09/01 02:18:29;;;;;;;2.80;2.40;;;11.70;85.90;;;;;;5055777;28;20176;-90
2022/09/01 02:20:57;;;;;;;3.70;2.50;;;11.60;86.20;;;;;;5056246;28;20271;-91
2022/09/01 02:23:24;;;;;;;2.57;2.37;;;11.60;86.50;;;;;;5055472;28;20172;-90
2022/09/01 02:25:53;;;;;;;2.63;2.43;;;11.60;86.70;;;;;;5055188;28;20176;-90
2022/09/01 02:28:21;;;;;;;2.93;2.30;;;11.60;86.80;;;;;;5055199;28;20196;-90
2022/09/01 02:30:52;;;;;;;2.43;2.23;;;11.60;86.90;;;;;;5055187;28;20551;-90
2022/09/01 02:33:18;;;;;;;3.60;2.50;;;11.60;87.00;;;;;;5056337;28;20152;-90
2022/09/01 02:35:45;;;;;;;2.77;2.53;;;11.60;86.90;;;;;;5055265;28;20183;-90
2022/09/01 02:38:12;;;;;;;6.20;2.60;;;11.60;86.90;;;;;;5055082;28;20548;-90
2022/09/01 02:40:43;;;;;;;4.13;2.63;;;11.60;87.00;;;;;;5055481;28;20180;-90
2022/09/01 02:43:10;;;;;;;4.50;2.97;;;11.50;87.00;;;;;;5055973;28;20262;-90
2022/09/01 02:45:37;;;;;;;2.93;2.70;;;11.50;87.00;;;;;;5071117;23;20582;-89
2022/09/01 02:48:09;;;;;;;5.37;2.63;;;11.50;87.10;;;;;;5056086;28;20196;-89
2022/09/01 02:50:35;;;;;;;2.73;2.53;;;11.40;87.20;;;;;;5038311;28;20172;-89
2022/09/01 02:53:01;;;;;;;2.97;2.60;;;11.40;87.30;;;;;;5036806;28;20172;-89
2022/09/01 02:55:27;;;;;;;3.67;2.53;;;11.40;87.30;;;;;;5042361;28;20287;-89
2022/09/01 02:57:57;;;;;;;2.67;2.40;;;11.40;87.40;;;;;;5055926;28;20233;-89
2022/09/01 03:00:30;;;;;;;2.47;2.27;;;11.40;87.40;;;;;;5054840;28;20222;-88
2022/09/01 03:02:58;;;;;;;3.00;2.27;;;11.30;87.20;;;;;;5055925;28;20233;-88
2022/09/01 03:05:29;;;;;;;2.53;2.10;;;11.30;87.30;;;;;;5054643;28;20200;-88
2022/09/01 03:08:00;;;;;;;1.90;1.80;;;11.40;87.40;;;;;;5054687;28;20192;-89
2022/09/01 03:10:35;;;;;;;2.23;2.03;;;11.40;87.20;;;;;;5054498;28;20171;-88
2022/09/01 03:13:15;;;;;;;4.07;2.07;;;11.30;86.80;;;;;;5055464;28;20168;-90
2022/09/01 03:15:42;;;;;;;4.80;2.10;;;11.30;86.40;;;;;;5054377;28;20192;-88
2022/09/01 03:18:08;;;;;;;3.27;1.80;;;11.30;86.00;;;;;;5054578;28;20187;-89
2022/09/01 03:20:36;;;;;;;2.40;2.20;;;11.30;85.50;;;;;;5054514;28;20225;-88
2022/09/01 03:23:06;;;;;;;2.80;1.80;;;11.20;85.00;;;;;;5055814;28;20289;-88
2022/09/01 03:25:32;;;;;;;1.63;1.53;;;11.20;84.60;;;;;;5055347;28;20237;-89
2022/09/01 03:28:00;;;;;;;2.50;2.17;;;11.20;84.20;;;;;;5055330;28;20200;-88
2022/09/01 03:30:30;;;;;;;2.47;2.17;;;11.20;83.80;;;;;;5054635;28;20317;-89
2022/09/01 03:32:57;;;;;;;5.33;2.00;;;11.20;83.50;;;;;;5054177;28;20168;-89
2022/09/01 03:35:24;;;;;;;4.60;2.07;;;11.20;83.30;;;;;;5054178;28;20188;-88
2022/09/01 03:37:51;;;;;;;2.20;2.00;;;11.20;82.90;;;;;;5054044;28;20202;-88
2022/09/01 03:40:17;;;;;;;2.57;2.37;;;11.20;82.90;;;;;;5054181;28;20179;-88
2022/09/01 03:42:43;;;;;;;2.70;2.50;;;11.20;83.40;;;;;;5054058;28;20207;-88
2022/09/01 03:45:13;;;;;;;2.30;2.10;;;11.10;83.90;;;;;;5053857;28;20211;-88
2022/09/01 03:47:39;;;;;;;8.03;3.00;;;11.00;84.10;;;;;;5053629;28;20199;-88
2022/09/01 03:50:22;;;;;;;3.63;2.20;;;11.00;84.40;;;;;;5053834;28;20264;-88
2022/09/01 03:52:51;;;;;;;1.87;1.77;;;11.00;84.50;;;;;;5054352;28;20218;-89
2022/09/01 03:55:26;;;;;;;3.60;2.07;;;10.90;84.60;;;;;;5054826;28;20216;-88
2022/09/01 03:58:05;;;;;;;3.23;2.40;;;10.90;84.60;;;;;;5053882;28;20164;-88
2022/09/01 04:00:34;;;;;;;3.77;2.07;;;10.90;84.30;;;;;;5053636;28;20187;-88
2022/09/01 04:03:01;;;;;;;2.47;2.27;;;10.80;84.00;;;;;;5053020;28;20206;-88
2022/09/01 04:05:29;;;;;;;2.40;2.20;;;10.80;83.60;;;;;;5053523;28;20204;-88
2022/09/01 04:08:00;;;;;;;3.37;2.00;;;10.80;83.30;;;;;;5054872;28;20668;-88
2022/09/01 04:10:26;;;;;;;2.87;2.10;;;10.80;83.10;;;;;;5055089;28;20156;-88
2022/09/01 04:12:55;;;;;;;2.63;1.93;;;10.80;82.90;;;;;;5054473;28;20172;-89
2022/09/01 04:15:20;;;;;;;6.20;2.13;;;10.80;82.60;;;;;;5054368;28;20685;-89
2022/09/01 04:20:38;;;;;;;2.20;2.00;;;10.70;82.30;;;;;;5054855;28;20214;-88
2022/09/01 04:23:09;;;;;;;2.40;2.20;;;10.70;82.20;;;;;;5054003;28;20528;-89
2022/09/01 04:25:37;;;;;;;2.53;2.10;;;10.70;82.10;;;;;;5053134;28;20201;-89
2022/09/01 04:28:11;;;;;;;2.00;1.90;;;10.70;81.90;;;;;;5054298;28;20188;-88
2022/09/01 04:30:39;;;;;;;2.20;2.00;;;10.70;81.80;;;;;;5053040;28;20171;-89
2022/09/01 04:33:06;;;;;;;2.20;2.00;;;10.60;81.70;;;;;;5054383;28;20164;-89
2022/09/01 04:35:38;;;;;;;4.10;1.70;;;10.60;81.60;;;;;;5053473;28;20316;-89
2022/09/01 04:38:03;;;;;;;4.27;2.00;;;10.60;81.60;;;;;;5053054;28;20172;-89
2022/09/01 04:40:29;;;;;;;2.60;1.97;;;10.60;81.40;;;;;;5053258;28;20182;-88
2022/09/01 04:42:55;;;;;;;2.30;2.10;;;10.60;81.30;;;;;;5055444;28;20176;-90
2022/09/01 04:45:26;;;;;;;3.07;2.10;;;10.70;81.10;;;;;;5053239;28;20211;-91
2022/09/01 04:47:51;;;;;;;2.43;2.23;;;10.90;80.90;;;;;;5052665;28;20206;-90
2022/09/01 04:50:17;;;;;;;2.70;2.40;;;11.20;80.70;;;;;;5052552;28;20270;-90
2022/09/01 04:52:44;;;;;;;3.37;2.50;;;11.40;80.70;;;;;;5054044;28;20176;-90
2022/09/01 04:55:16;;;;;;;2.40;2.13;;;11.50;80.60;;;;;;5052379;28;20196;-90
2022/09/01 04:57:46;;;;;;;2.70;2.50;;;11.70;80.80;;;;;;5053002;28;20168;-90
2022/09/01 05:00:23;;;;;;;2.53;2.33;;;11.70;81.40;;;;;;5053176;28;20269;-89
2022/09/01 05:03:03;;;;;;;4.90;2.57;;;11.90;81.70;;;;;;5052731;28;20218;-92
2022/09/01 05:05:38;;;;;;;3.20;2.90;;;11.80;81.40;;;;;;5053008;28;20200;-89
2022/09/01 05:08:04;;;;;;;6.43;3.17;;;11.80;81.90;;;;;;5052322;28;20204;-90
2022/09/01 05:10:30;;;;;;;3.70;3.00;;;11.60;82.80;;;;;;5052809;28;20172;-89
2022/09/01 05:12:56;;;;;;;2.93;2.73;;;11.40;83.50;;;;;;5052816;28;20188;-89
2022/09/01 05:15:22;;;;;;;3.27;3.00;;;11.20;84.20;;;;;;5053368;28;20191;-89
2022/09/01 05:17:48;;;;;;;4.00;3.33;;;11.20;84.90;;;;;;5054092;28;20187;-87
2022/09/01 05:20:15;;;;;;;3.47;3.17;;;11.00;85.40;;;;;;5052660;28;20180;-88
2022/09/01 05:22:40;;;;;;;4.90;2.93;;;11.00;85.90;;;;;;5054144;28;20202;-89
2022/09/01 05:25:12;;;;;;;4.73;3.10;;;11.00;86.30;;;;;;5052664;28;20203;-90
2022/09/01 05:27:48;;;;;;;3.77;3.37;;;10.90;86.70;;;;;;5053544;28;20239;-88
2022/09/01 05:30:15;;;;;;;9.10;4.70;;;10.90;87.00;;;;;;5052507;28;20633;-89
2022/09/01 05:32:42;;;;;;;6.33;3.83;;;11.00;87.40;;;;;;5052283;28;20180;-88
2022/09/01 05:35:08;;;;;;;8.07;3.50;;;11.10;87.60;;;;;;5053472;28;20188;-88
2022/09/01 05:37:37;;;;;;;4.20;3.87;;;11.20;87.70;;;;;;5052320;28;20554;-88
2022/09/01 05:40:14;;;;;;;5.27;4.00;;;11.30;87.90;;;;;;5052708;28;20184;-88
2022/09/01 05:42:42;;;;;;;6.60;3.73;;;11.40;88.00;;;;;;5051960;28;20175;-90
2022/09/01 05:45:10;;;;;;;9.77;4.00;;;11.50;88.20;;;;;;5051708;28;20211;-91
2022/09/01 05:47:37;;;;;;;4.07;3.43;;;11.60;88.10;;;;;;5053419;28;20212;-92
2022/09/01 05:50:04;;;;;;;4.00;3.70;;;11.60;88.10;;;;;;5054155;28;20198;-88
2022/09/01 05:52:36;;;;;;;7.37;3.93;;;11.60;88.20;;;;;;5052212;28;20278;-89
2022/09/01 05:55:01;;;;;;;5.47;3.73;;;11.70;88.20;;;;;;5052070;28;20682;-90
2022/09/01 05:57:27;;;;;;;7.50;3.83;;;11.70;88.20;;;;;;5053304;28;20176;-90
2022/09/01 05:59:53;;;;;;;4.50;3.67;;;11.70;88.10;;;;;;5053176;28;20191;-89
2022/09/01 06:02:20;;;;;;;7.07;3.23;;;11.80;88.00;;;;;;5051787;28;20191;-87
2022/09/01 06:04:46;;;;;;;4.30;3.50;;;12.00;88.10;;;;;;5052161;28;20180;-87
2022/09/01 06:07:14;;;;;;;7.27;3.40;;;12.20;88.00;;;;;;5053141;28;20670;-86
2022/09/01 06:09:42;;;;;;;6.63;3.27;;;12.30;87.90;;;;;;5052464;28;20176;-88
2022/09/01 06:12:16;;;;;;;5.83;3.60;;;12.40;88.00;;;;;;5051808;28;20267;-88
2022/09/01 06:14:42;;;;;;;7.70;3.70;;;12.50;88.20;;;;;;5051663;28;20595;-89
2022/09/01 06:17:09;;;;;;;7.40;3.60;;;12.70;88.10;;;;;;5051867;28;20187;-89
2022/09/01 06:19:35;;;;;;;3.80;3.47;;;12.80;88.20;;;;;;5053265;28;20247;-90
2022/09/01 06:22:01;;;;;;;4.80;3.40;;;12.80;88.30;;;;;;5051913;28;20180;-86
2022/09/01 06:24:27;;;;;;;6.30;3.40;;;13.00;88.20;;;;;;5052177;28;20711;-89
2022/09/01 06:26:53;;;;;;;5.03;3.40;;;13.20;88.20;;;;;;5055205;28;20196;-89
2022/09/01 06:29:19;;;;;;;5.60;2.80;;;13.20;88.00;;;;;;5055888;28;20176;-90
2022/09/01 06:31:50;;;;;;;3.10;2.80;;;13.30;87.80;;;;;;5055708;28;20333;-90
2022/09/01 06:34:17;;;;;;;3.20;2.90;;;13.40;87.70;;;;;;5057141;28;20164;-89
2022/09/01 06:36:44;;;;;;;3.20;2.90;;;13.50;87.60;;;;;;5057088;28;20188;-92
2022/09/01 06:39:18;;;;;;;5.00;2.50;;;13.70;87.50;;;;;;5058303;28;20203;-90
2022/09/01 06:41:46;;;;;;;6.83;2.80;;;13.80;87.20;;;;;;5057005;28;20677;-88
2022/09/01 06:44:13;;;;;;;4.67;2.23;;;13.80;87.10;;;;;;5055190;28;20183;-89
2022/09/01 06:46:39;;;;;;;2.83;2.40;;;14.00;87.10;;;;;;5054818;28;20299;-90
2022/09/01 06:49:04;;;;;;;10.10;2.20;;;14.10;87.00;;;;;;5055670;28;20346;-90
2022/09/01 06:51:30;;;;;;;24.93;16.40;;;14.30;86.60;;;;;;5054968;28;20182;-90
2022/09/01 06:53:58;;;;;;;9.33;6.43;;;14.40;86.30;;;;;;5054966;28;20234;-91
2022/09/01 06:56:30;;;;;;;3.50;3.20;;;14.50;85.90;;;;;;5055176;28;20204;-92
2022/09/01 06:58:56;;;;;;;4.10;2.63;;;14.60;85.30;;;;;;5057114;28;20163;-91
2022/09/01 07:01:23;;;;;;;3.17;1.87;;;14.70;85.00;;;;;;5055769;28;20219;-90
2022/09/01 07:03:54;;;;;;;3.07;1.57;;;14.80;85.10;;;;;;5055061;28;20176;-91
2022/09/01 07:06:26;;;;;;;4.93;1.50;;;14.80;84.60;;;;;;5056893;28;20203;-90
2022/09/01 07:08:54;;;;;;;6.50;1.67;;;15.00;84.30;;;;;;5058812;28;20214;-91
2022/09/01 07:11:24;;;;;;;3.42;1.60;;;15.10;83.80;;;;;;5058328;28;20182;-92
2022/09/01 07:13:54;;;;;;;6.07;1.97;;;15.20;83.50;;;;;;5071542;28;20177;-94
2022/09/01 07:16:23;;;;;;;4.13;1.20;;;15.30;83.10;;;;;;5062479;28;20200;-93
2022/09/01 07:18:58;;;;;;;4.75;1.20;;;15.50;82.80;;;;;;5063566;28;20210;-91
2022/09/01 07:21:26;;;;;;;2.17;1.27;;;15.60;81.90;;;;;;5067710;28;20202;-93
2022/09/01 07:23:51;;;;;;;8.07;5.00;;;15.80;81.30;;;;;;5058756;28;20547;-91
2022/09/01 07:26:18;;;;;;;12.60;9.00;;;15.80;81.20;;;;;;5055892;28;20203;-91
2022/09/01 07:28:45;;;;;;;5.63;1.60;;;16.00;80.30;;;;;;5039250;28;20207;-92
2022/09/01 07:31:20;;;;;;;3.35;1.30;;;16.20;79.50;;;;;;5055967;28;20200;-91
2022/09/01 07:33:48;;;;;;;3.75;0.93;;;16.30;79.10;;;;;;5054672;28;20645;-91
2022/09/01 07:36:14;;;;;;;3.75;1.20;;;16.40;78.20;;;;;;5054419;28;20198;-91
2022/09/01 07:38:41;;;;;;;2.35;0.93;;;16.60;77.70;;;;;;5054996;28;20684;-90
2022/09/01 07:41:11;;;;;;;3.33;1.40;;;16.60;76.80;;;;;;5055880;28;20218;-92
2022/09/01 07:43:38;;;;;;;4.63;1.10;;;16.70;76.80;;;;;;5056740;28;20172;-91
2022/09/01 07:46:05;;;;;;;1.23;1.10;;;16.80;76.80;;;;;;5054495;28;20254;-91
2022/09/01 07:48:31;;;;;;;1.23;1.00;;;16.90;76.40;;;;;;5055640;28;20231;-91
2022/09/01 07:50:57;;;;;;;2.53;1.05;;;17.00;75.60;;;;;;5059507;28;20194;-91
2022/09/01 07:53:31;;;;;;;4.55;1.83;;;17.00;75.10;;;;;;5056045;28;20195;-91
2022/09/01 07:55:59;;;;;;;1.50;0.82;;;17.20;74.20;;;;;;5056330;28;20220;-90
2022/09/01 07:58:26;;;;;;;1.23;1.13;;;17.20;74.30;;;;;;5057377;28;20267;-92
2022/09/01 08:00:53;;;;;;;2.50;0.98;;;17.30;73.50;;;;;;5054993;28;20270;-91
2022/09/01 08:03:22;;;;;;;2.75;1.10;;;17.50;72.60;;;;;;5055258;28;20551;-91
2022/09/01 08:05:52;;;;;;;1.05;0.90;;;17.50;72.30;;;;;;5057348;28;20200;-91
2022/09/01 08:08:18;;;;;;;2.50;0.80;;;17.60;70.70;;;;;;5057461;28;20187;-91
2022/09/01 08:10:45;;;;;;;1.08;0.90;;;17.70;70.80;;;;;;5058002;28;20172;-91
2022/09/01 08:13:11;;;;;;;2.33;1.10;;;17.80;70.00;;;;;;5054305;28;20172;-90
2022/09/01 08:15:40;;;;;;;2.65;1.38;;;17.80;70.20;;;;;;5058533;28;20192;-92
2022/09/01 08:18:06;;;;;;;2.85;0.88;;;17.80;69.80;;;;;;5055025;28;20172;-91
2022/09/01 08:20:36;;;;;;;1.00;0.90;;;18.00;69.60;;;;;;5054784;28;20186;-91
2022/09/01 08:23:03;;;;;;;3.70;1.08;;;18.10;69.10;;;;;;5055980;28;20233;-90
2022/09/01 08:25:29;;;;;;;1.73;0.90;;;18.20;68.30;;;;;;5053033;28;20195;-89
2022/09/01 08:27:55;;;;;;;4.65;1.13;;;18.20;67.10;;;;;;5054174;28;20208;-89
2022/09/01 08:30:21;;;;;;;1.08;1.00;;;18.30;66.00;;;;;;5053091;28;20662;-87
2022/09/01 08:32:48;;;;;;;10.77;6.75;;;18.30;67.90;;;;;;5054088;28;20234;-88
2022/09/01 08:35:15;;;;;;;1.00;0.95;;;18.50;67.20;;;;;;5052671;28;20692;-87
2022/09/01 08:37:42;;;;;;;6.43;0.90;;;18.40;67.40;;;;;;5054059;28;20226;-89
2022/09/01 08:40:12;;;;;;;1.23;0.80;;;18.50;67.30;;;;;;5052624;28;20207;-88
2022/09/01 08:42:53;;;;;;;1.33;0.95;;;18.60;65.60;;;;;;5052677;28;20171;-89
2022/09/01 08:45:47;;;;;;;1.52;0.77;;;18.60;65.80;;;;;;5089918;23;20207;-89
2022/09/01 08:48:45;;;;;;;2.38;1.08;;;18.70;64.20;;;;;;5036274;28;20204;-88
2022/09/01 08:51:29;;;;;;;2.53;1.08;;;18.80;63.90;;;;;;5048779;28;20188;-89
2022/09/01 08:54:41;;;;;;;1.27;0.95;;;18.80;61.90;;;;;;5053683;28;20164;-89
2022/09/01 08:57:50;;;;;;;1.05;0.77;;;18.90;60.90;;;;;;5026628;28;20207;-89
2022/09/01 09:00:19;;;;;;;2.63;0.98;;;19.10;60.50;;;;;;5021071;28;20223;-89
2022/09/01 09:03:15;;;;;;;1.05;0.82;;;19.20;60.50;;;;;;5053490;28;20622;-90
2022/09/01 09:05:52;;;;;;;0.98;0.73;;;19.20;59.20;;;;;;5052213;28;20720;-90
2022/09/01 09:08:42;;;;;;;5.57;0.95;;;19.40;59.30;;;;;;5052662;28;20203;-89
2022/09/01 09:11:16;;;;;;;0.95;0.75;;;19.50;58.50;;;;;;5055264;28;20164;-91
2022/09/01 09:14:06;;;;;;;2.90;0.90;;;19.70;57.70;;;;;;5054680;28;20203;-90
2022/09/01 09:16:47;;;;;;;3.15;1.13;;;19.70;57.80;;;;;;5052256;28;20196;-91
2022/09/01 09:19:23;;;;;;;3.42;0.80;;;19.70;56.30;;;;;;5052365;28;20171;-91
2022/09/01 09:21:51;;;;;;;1.27;0.65;;;19.90;56.60;;;;;;5051956;28;20221;-89
2022/09/01 09:24:46;;;;;;;3.55;0.80;;;20.00;53.70;;;;;;5051847;28;20176;-90
2022/09/01 09:27:20;;;;;;;0.55;0.55;;;20.00;53.60;;;;;;5051767;28;20208;-91
2022/09/01 09:29:52;;;;;;;2.45;0.80;;;20.10;55.70;;;;;;5053769;28;20168;-91
2022/09/01 09:32:19;;;;;;;3.40;0.80;;;20.20;54.80;;;;;;5053128;28;20587;-89
2022/09/01 09:34:45;;;;;;;4.03;3.50;;;20.40;54.10;;;;;;5052321;28;20649;-89
2022/09/01 09:37:26;;;;;;;8.23;6.30;;;20.50;53.30;;;;;;5051735;28;20199;-90
2022/09/01 09:40:13;;;;;;;2.97;1.40;;;20.70;54.10;;;;;;5053166;28;20262;-91
2022/09/01 09:42:42;;;;;;;1.88;0.90;;;20.70;51.00;;;;;;5052606;28;20172;-91
2022/09/01 09:45:25;;;;;;;1.20;0.73;;;20.80;51.30;;;;;;5052671;28;20183;-91
2022/09/01 09:47:55;;;;;;;2.60;1.45;;;20.70;48.80;;;;;;5054804;28;20287;-90
2022/09/01 09:50:28;;;;;;;1.75;1.10;;;20.70;49.00;;;;;;5052029;28;20172;-89
2022/09/01 09:53:10;;;;;;;4.22;0.77;;;20.80;49.20;;;;;;5052152;28;20208;-87
2022/09/01 09:55:48;;;;;;;1.20;1.10;;;20.70;49.70;;;;;;5051843;28;20192;-89
2022/09/01 09:58:14;;;;;;;3.13;0.93;;;20.80;51.00;;;;;;5051646;28;20188;-90
2022/09/01 10:00:42;;;;;;;1.38;1.10;;;21.10;50.40;;;;;;5051841;28;20625;-90
2022/09/01 10:03:11;;;;;;;1.98;1.10;;;21.00;48.70;;;;;;5055865;28;20176;-88
2022/09/01 10:05:50;;;;;;;1.35;0.73;;;20.90;48.70;;;;;;5055888;28;20200;-91
2022/09/01 10:08:36;;;;;;;0.93;0.70;;;20.80;48.80;;;;;;5055696;28;20213;-89
2022/09/01 10:11:03;;;;;;;0.60;0.60;;;20.80;50.40;;;;;;5057276;28;20164;-91
2022/09/01 10:13:31;;;;;;;1.15;0.80;;;20.90;50.90;;;;;;5056269;28;20718;-89
2022/09/01 10:16:03;;;;;;;2.45;0.90;;;21.00;50.70;;;;;;5056225;28;20188;-90
2022/09/01 10:18:34;;;;;;;0.90;0.52;;;21.10;48.90;;;;;;5056805;28;20164;-89
2022/09/01 10:21:15;;;;;;;0.88;0.75;;;21.30;49.40;;;;;;5056825;28;20160;-89
2022/09/01 10:23:42;;;;;;;1.80;0.70;;;21.50;48.40;;;;;;5056024;28;20160;-90
2022/09/01 10:26:16;;;;;;;3.15;1.00;;;21.60;48.90;;;;;;5055064;28;20203;-89
2022/09/01 10:28:59;;;;;;;1.02;0.70;;;21.50;49.10;;;;;;5055112;28;20195;-90
2022/09/01 10:31:25;;;;;;;4.68;0.60;;;21.70;49.10;;;;;;5056464;28;20707;-90
2022/09/01 10:33:51;;;;;;;2.33;0.75;;;21.70;48.00;;;;;;5054962;28;20202;-89
2022/09/01 10:36:18;;;;;;;4.75;1.48;;;21.70;45.90;;;;;;5054934;28;20231;-90
2022/09/01 10:38:44;;;;;;;0.70;0.70;;;21.80;48.30;;;;;;5055419;28;20195;-90
2022/09/01 10:41:29;;;;;;;2.35;0.90;;;22.10;47.40;;;;;;5055097;28;20179;-89
2022/09/01 10:44:09;;;;;;;1.40;1.02;;;22.00;45.40;;;;;;5056029;28;20176;-90
2022/09/01 10:46:40;;;;;;;0.88;0.80;;;22.00;46.30;;;;;;5054803;28;20211;-90
2022/09/01 10:49:29;;;;;;;1.05;0.95;;;22.10;47.00;;;;;;5054700;28;20202;-90
2022/09/01 10:51:56;;;;;;;1.83;0.80;;;22.20;47.90;;;;;;5056117;28;20160;-89
2022/09/01 10:54:39;;;;;;;2.53;0.75;;;22.40;46.90;;;;;;5054685;28;20172;-90
2022/09/01 10:57:20;;;;;;;3.38;1.10;;;22.50;48.60;;;;;;5054850;28;20739;-90
2022/09/01 10:59:46;;;;;;;2.65;0.90;;;22.40;47.00;;;;;;5054603;28;20536;-90
2022/09/01 11:02:18;;;;;;;1.52;0.77;;;22.50;44.60;;;;;;5054688;28;20267;-90
2022/09/01 11:04:44;;;;;;;3.80;0.90;;;22.60;47.00;;;;;;5054855;28;20218;-90
2022/09/01 11:07:24;;;;;;;5.50;1.20;;;22.50;45.40;;;;;;5054847;28;20200;-90
2022/09/01 11:10:27;;;;;;;4.78;1.35;;;22.50;45.20;;;;;;5054506;28;20636;-89
2022/09/01 11:13:13;;;;;;;2.05;1.15;;;22.60;44.30;;;;;;5053218;28;20163;-90
2022/09/01 11:15:44;;;;;;;0.85;0.85;;;22.60;44.70;;;;;;5054294;28;20199;-90
2022/09/01 11:18:30;;;;;;;2.58;1.27;;;22.40;43.50;;;;;;5055683;28;20205;-90
2022/09/01 11:21:22;;;;;;;1.50;0.93;;;22.30;44.90;;;;;;5056118;28;20207;-90
2022/09/01 11:23:47;;;;;;;1.17;0.85;;;22.50;45.70;;;;;;5054281;28;20190;-89
2022/09/01 11:26:31;;;;;;;1.10;0.68;;;22.70;44.80;;;;;;5055891;28;20192;-88
2022/09/01 11:28:57;;;;;;;0.98;0.80;;;22.90;45.10;;;;;;5054460;28;20208;-88
2022/09/01 11:31:39;;;;;;;1.45;0.85;;;23.00;42.80;;;;;;5055038;28;20219;-87
2022/09/01 11:34:18;;;;;;;0.73;0.70;;;23.10;42.50;;;;;;5054111;28;20171;-87
2022/09/01 11:36:46;;;;;;;1.30;0.70;;;23.20;43.00;;;;;;5053971;28;20192;-88
2022/09/01 11:39:29;;;;;;;1.77;0.88;;;23.20;44.20;;;;;;5053858;28;20179;-90
2022/09/01 11:42:02;;;;;;;1.05;0.90;;;23.20;42.80;;;;;;5055068;28;20530;-89
2022/09/01 11:44:46;;;;;;;0.85;0.70;;;23.20;42.50;;;;;;5053729;28;20234;-88
2022/09/01 11:47:26;;;;;;;1.10;0.63;;;23.10;41.70;;;;;;5054132;28;20226;-89
2022/09/01 11:49:56;;;;;;;1.17;0.80;;;22.80;42.90;;;;;;5053672;28;20746;-88
2022/09/01 11:52:25;;;;;;;1.00;0.68;;;22.60;44.60;;;;;;5054063;28;20172;-88
2022/09/01 11:54:51;;;;;;;1.67;0.60;;;22.20;44.20;;;;;;5053554;28;20257;-87
2022/09/01 11:57:28;;;;;;;0.80;0.55;;;22.00;45.10;;;;;;5053653;28;20200;-87
2022/09/01 11:59:55;;;;;;;3.85;1.20;;;21.70;46.00;;;;;;5055354;28;20704;-86
2022/09/01 12:02:29;;;;;;;1.17;0.80;;;21.60;46.40;;;;;;5053643;28;20207;-87
2022/09/01 12:04:56;;;;;;;1.33;0.52;;;21.40;46.60;;;;;;5055195;28;20156;-87
2022/09/01 12:07:43;;;;;;;3.22;1.20;;;21.40;46.80;;;;;;5053128;28;20580;-87
2022/09/01 12:10:17;;;;;;;2.70;2.40;;;21.30;46.30;;;;;;5053386;28;20152;-87
2022/09/01 12:12:43;;;;;;;3.60;0.65;;;21.20;45.90;;;;;;5054452;28;20195;-87
2022/09/01 12:15:16;;;;;;;1.27;0.85;;;21.20;45.80;;;;;;5053087;28;20226;-87
2022/09/01 12:17:41;;;;;;;0.95;0.70;;;21.10;47.70;;;;;;5053129;28;20171;-86
2022/09/01 12:20:22;;;;;;;0.93;0.70;;;21.10;48.60;;;;;;5054402;28;20612;-87
2022/09/01 12:22:47;;;;;;;3.22;0.77;;;21.20;48.80;;;;;;5054488;28;20191;-86
2022/09/01 12:25:34;;;;;;;1.17;0.60;;;21.20;47.50;;;;;;5053749;28;20549;-87
2022/09/01 12:28:01;;;;;;;0.70;0.70;;;21.30;47.30;;;;;;5052731;28;20192;-88
2022/09/01 12:30:27;;;;;;;2.28;0.70;;;21.30;46.80;;;;;;5054025;28;20239;-87
2022/09/01 12:32:55;;;;;;;1.27;0.85;;;21.20;47.10;;;;;;5052862;28;20233;-88
2022/09/01 12:35:24;;;;;;;2.38;0.60;;;21.20;47.50;;;;;;5053344;28;20266;-87
2022/09/01 12:37:51;;;;;;;1.80;0.70;;;21.20;48.80;;;;;;5052972;28;20172;-87
2022/09/01 12:40:34;;;;;;;1.48;0.70;;;21.20;46.40;;;;;;5052684;28;20175;-88
2022/09/01 12:43:00;;;;;;;2.45;0.73;;;21.60;46.50;;;;;;5052595;28;20186;-87
2022/09/01 12:45:40;;;;;;;2.30;0.80;;;21.80;45.70;;;;;;5052453;28;20678;-87
2022/09/01 12:48:22;;;;;;;0.80;0.73;;;22.00;44.10;;;;;;5054259;28;20188;-87
2022/09/01 12:50:49;;;;;;;0.70;0.70;;;22.30;45.20;;;;;;5052753;28;20541;-86
2022/09/01 12:53:17;;;;;;;1.23;0.70;;;22.70;44.40;;;;;;5052748;28;20172;-86
2022/09/01 12:56:01;;;;;;;2.53;0.82;;;22.90;42.40;;;;;;5052375;28;20278;-86
2022/09/01 12:58:29;;;;;;;3.05;0.65;;;23.20;43.30;;;;;;5052575;28;20186;-87
2022/09/01 13:01:00;;;;;;;1.33;0.73;;;23.30;44.10;;;;;;5052510;28;20203;-87
2022/09/01 13:03:28;;;;;;;1.50;0.77;;;23.20;46.20;;;;;;5052370;28;20543;-86
2022/09/01 13:05:57;;;;;;;1.40;0.85;;;23.20;45.40;;;;;;5053660;28;20191;-87
2022/09/01 13:08:27;;;;;;;1.20;0.82;;;23.10;46.40;;;;;;5052022;28;20210;-87
2022/09/01 13:10:56;;;;;;;0.60;0.60;;;23.10;45.10;;;;;;5053370;28;20250;-87